Terminal Aerodrome Forecast
Issued by NWS

Home | Current Version | Previous Version | Text Only | Print | Product List | Glossary On
Versions: 1 2 3 4 5 6 7 8 9 10 11 12 13 14 15 16
000
FTUS43 KMPX 251700
TAFAXN
TAF
KAXN 251721Z 2518/2618 31012G19KT P6SM SKC
     FM252300 32005KT P6SM SKC
     FM260900 13004KT P6SM SKC
     FM261500 14015G21KT P6SM SKC=

USA.gov is the U.S. government's official web portal to all federal, state and local government web resources and services.